createdAt,value
2018-09-27T00:01:55.522Z,5.80
2018-09-27T00:04:25.364Z,6.63
2018-09-27T00:06:55.062Z,5.37
2018-09-27T00:09:24.889Z,6.57
2018-09-27T00:11:54.515Z,6.77
2018-09-27T00:14:24.290Z,5.23
2018-09-27T00:16:53.986Z,8.77
2018-09-27T00:19:23.745Z,5.70
2018-09-27T00:21:53.363Z,5.37
2018-09-27T00:24:23.084Z,5.73
2018-09-27T00:26:52.602Z,5.83
2018-09-27T00:29:22.265Z,4.13
2018-09-27T00:31:51.918Z,8.50
2018-09-27T00:34:21.716Z,6.20
2018-09-27T00:36:51.350Z,4.97
2018-09-27T00:39:20.984Z,4.63
2018-09-27T00:41:50.529Z,4.50
2018-09-27T00:44:20.116Z,5.43
2018-09-27T00:46:49.701Z,7.63
2018-09-27T00:49:19.353Z,6.07
2018-09-27T00:51:49.612Z,7.40
2018-09-27T00:54:19.399Z,7.23
2018-09-27T00:56:49.231Z,7.00
2018-09-27T00:59:19.078Z,6.23
2018-09-27T01:01:48.921Z,6.20
2018-09-27T01:04:18.774Z,6.00
2018-09-27T01:06:48.510Z,7.57
2018-09-27T01:09:18.209Z,7.53
2018-09-27T01:11:47.856Z,7.80
2018-09-27T01:14:17.742Z,7.60
2018-09-27T01:16:47.478Z,7.47
2018-09-27T01:19:17.354Z,7.40
2018-09-27T01:21:47.129Z,6.73
2018-09-27T01:24:16.937Z,8.70
2018-09-27T01:26:46.682Z,11.70
2018-09-27T01:29:23.718Z,7.57
2018-09-27T01:31:56.254Z,8.60
2018-09-27T01:34:26.094Z,7.33
2018-09-27T01:36:55.870Z,7.73
2018-09-27T01:39:25.705Z,7.27
2018-09-27T01:41:55.551Z,6.13
2018-09-27T01:44:25.378Z,6.10
2018-09-27T01:46:55.314Z,7.57
2018-09-27T01:49:25.193Z,6.93
2018-09-27T01:51:54.973Z,5.40
2018-09-27T01:54:24.741Z,6.83
2018-09-27T01:56:54.627Z,7.40
2018-09-27T01:59:24.373Z,8.73
2018-09-27T02:01:54.241Z,8.63
2018-09-27T02:04:24.069Z,8.70
2018-09-27T02:06:53.808Z,7.73
2018-09-27T02:09:23.497Z,6.47
2018-09-27T02:11:53.229Z,7.90
2018-09-27T02:14:22.997Z,7.03
2018-09-27T02:16:52.697Z,5.93
2018-09-27T02:19:22.539Z,7.33
2018-09-27T02:21:52.436Z,6.87
2018-09-27T02:24:22.382Z,6.33
2018-09-27T02:26:52.146Z,6.93
2018-09-27T02:29:21.937Z,6.97
2018-09-27T02:31:51.659Z,5.97
2018-09-27T02:34:21.515Z,7.43
2018-09-27T02:36:51.337Z,6.53
2018-09-27T02:39:21.025Z,6.90
2018-09-27T02:41:50.824Z,6.50
2018-09-27T02:44:20.607Z,8.00
2018-09-27T02:46:50.372Z,9.80
2018-09-27T02:49:20.055Z,8.57
2018-09-27T02:51:49.910Z,6.87
2018-09-27T02:54:19.756Z,11.27
2018-09-27T02:56:49.475Z,9.47
2018-09-27T02:59:19.300Z,6.13
2018-09-27T03:01:49.103Z,6.93
2018-09-27T03:04:18.822Z,8.10
2018-09-27T03:06:48.576Z,6.47
2018-09-27T03:09:18.349Z,8.17
2018-09-27T03:11:48.106Z,7.73
2018-09-27T03:14:17.970Z,8.60
2018-09-27T03:16:47.770Z,7.70
2018-09-27T03:19:17.607Z,8.13
2018-09-27T03:21:47.335Z,6.87
2018-09-27T03:24:16.976Z,6.67
2018-09-27T03:26:46.777Z,8.73
2018-09-27T03:29:16.605Z,9.97
2018-09-27T03:31:46.405Z,7.33
2018-09-27T03:34:16.144Z,7.27
2018-09-27T03:36:45.981Z,9.23
2018-09-27T03:39:15.785Z,9.37
2018-09-27T03:41:45.437Z,9.43
2018-09-27T03:44:15.169Z,8.43
2018-09-27T03:46:44.974Z,8.53
2018-09-27T03:49:14.684Z,10.17
2018-09-27T03:51:44.359Z,8.00
2018-09-27T03:54:14.183Z,8.23
2018-09-27T03:56:43.981Z,5.90
2018-09-27T03:59:13.838Z,6.60
2018-09-27T04:01:43.710Z,8.97
2018-09-27T04:04:13.394Z,9.93
2018-09-27T04:06:43.232Z,9.23
2018-09-27T04:09:13.092Z,10.83
2018-09-27T04:11:42.904Z,10.60
2018-09-27T04:14:12.610Z,8.67
2018-09-27T04:16:42.418Z,7.30
2018-09-27T04:19:12.334Z,10.13
2018-09-27T04:21:42.065Z,10.03
2018-09-27T04:24:11.841Z,9.40
2018-09-27T04:26:41.638Z,6.50
2018-09-27T04:29:11.491Z,8.90
2018-09-27T04:31:41.229Z,9.00
2018-09-27T04:34:10.953Z,10.90
2018-09-27T04:36:40.661Z,10.20
2018-09-27T04:39:12.373Z,9.97
2018-09-27T04:41:42.222Z,7.17
2018-09-27T04:44:12.034Z,10.60
2018-09-27T04:46:41.919Z,9.37
2018-09-27T04:49:11.692Z,9.93
2018-09-27T04:51:41.562Z,10.33
2018-09-27T04:54:11.249Z,8.20
2018-09-27T04:56:40.997Z,9.30
2018-09-27T04:59:10.789Z,8.23
2018-09-27T05:01:40.548Z,7.83
2018-09-27T05:04:10.395Z,8.60
2018-09-27T05:06:40.153Z,8.07
2018-09-27T05:09:10.488Z,9.57
2018-09-27T05:11:40.315Z,8.57
2018-09-27T05:14:10.047Z,8.20
2018-09-27T05:16:39.893Z,7.70
2018-09-27T05:19:09.645Z,8.43
2018-09-27T05:21:39.565Z,7.67
2018-09-27T05:24:09.296Z,7.77
2018-09-27T05:26:39.068Z,8.93
2018-09-27T05:29:08.931Z,8.70
2018-09-27T05:31:38.663Z,10.87
2018-09-27T05:34:08.479Z,7.73
2018-09-27T05:36:38.268Z,7.40
2018-09-27T05:39:10.335Z,7.50
2018-09-27T05:41:40.203Z,11.20
2018-09-27T05:44:10.259Z,8.83
2018-09-27T05:46:40.158Z,9.13
2018-09-27T05:49:10.019Z,9.17
2018-09-27T05:51:39.944Z,7.17
2018-09-27T05:54:09.775Z,7.43
2018-09-27T05:56:39.615Z,7.17
2018-09-27T05:59:09.533Z,6.83
2018-09-27T06:01:39.401Z,9.03
2018-09-27T06:04:09.232Z,6.60
2018-09-27T06:06:39.166Z,10.10
2018-09-27T06:09:12.111Z,8.53
2018-09-27T06:11:41.931Z,8.93
2018-09-27T06:14:11.773Z,9.30
2018-09-27T06:16:41.565Z,10.30
2018-09-27T06:19:11.334Z,9.23
2018-09-27T06:21:41.232Z,9.40
2018-09-27T06:24:10.974Z,9.87
2018-09-27T06:26:40.850Z,9.77
2018-09-27T06:29:10.639Z,11.20
2018-09-27T06:31:40.437Z,7.83
2018-09-27T06:34:10.238Z,8.03
2018-09-27T06:36:40.038Z,11.57
2018-09-27T06:39:11.318Z,7.30
2018-09-27T06:41:41.188Z,8.27
2018-09-27T06:44:11.258Z,7.37
2018-09-27T06:46:41.047Z,7.60
2018-09-27T06:49:10.791Z,9.23
2018-09-27T06:51:40.708Z,9.30
2018-09-27T06:54:10.448Z,9.93
2018-09-27T06:56:40.406Z,8.60
2018-09-27T06:59:10.220Z,11.27
2018-09-27T07:01:40.100Z,8.57
2018-09-27T07:04:10.066Z,9.07
2018-09-27T07:06:39.833Z,8.27
2018-09-27T07:09:12.968Z,8.30
2018-09-27T07:11:42.650Z,7.47
2018-09-27T07:14:12.417Z,7.33
2018-09-27T07:16:42.249Z,8.37
2018-09-27T07:19:11.984Z,7.17
2018-09-27T07:21:41.876Z,7.70
2018-09-27T07:24:11.518Z,9.20
2018-09-27T07:26:41.358Z,7.47
2018-09-27T07:29:11.174Z,6.33
2018-09-27T07:31:41.054Z,9.30
2018-09-27T07:34:10.826Z,8.07
2018-09-27T07:36:40.618Z,6.77
2018-09-27T07:39:12.238Z,5.97
2018-09-27T07:41:42.143Z,6.97
2018-09-27T07:44:12.589Z,7.53
2018-09-27T07:46:42.399Z,7.70
2018-09-27T07:49:12.121Z,8.60
2018-09-27T07:51:41.911Z,9.47
2018-09-27T07:54:11.681Z,6.83
2018-09-27T07:56:41.512Z,6.20
2018-09-27T07:59:11.328Z,7.13
2018-09-27T08:01:41.227Z,9.70
2018-09-27T08:04:11.229Z,6.77
2018-09-27T08:06:41.108Z,8.00
2018-09-27T08:09:10.805Z,8.37
2018-09-27T08:11:40.626Z,8.13
2018-09-27T08:14:10.400Z,6.43
2018-09-27T08:16:40.165Z,8.77
2018-09-27T08:19:10.082Z,9.07
2018-09-27T08:21:39.874Z,7.80
2018-09-27T08:24:09.779Z,8.57
2018-09-27T08:26:39.548Z,7.60
2018-09-27T08:29:09.291Z,8.07
2018-09-27T08:31:39.119Z,7.93
2018-09-27T08:34:08.911Z,9.47
2018-09-27T08:36:38.831Z,11.10
2018-09-27T08:39:11.320Z,8.53
2018-09-27T08:41:41.217Z,9.10
2018-09-27T08:44:12.113Z,8.57
2018-09-27T08:46:43.250Z,7.80
2018-09-27T08:49:13.407Z,12.63
2018-09-27T08:51:43.319Z,10.67
2018-09-27T08:54:13.143Z,9.83
2018-09-27T08:56:43.067Z,11.60
2018-09-27T08:59:12.900Z,11.00
2018-09-27T09:01:42.875Z,8.73
2018-09-27T09:04:12.596Z,10.60
2018-09-27T09:06:43.100Z,10.93
2018-09-27T09:09:14.017Z,9.43
2018-09-27T09:11:44.274Z,8.93
2018-09-27T09:14:14.253Z,11.37
2018-09-27T09:16:44.293Z,8.50
2018-09-27T09:19:14.315Z,9.63
2018-09-27T09:21:44.841Z,11.63
2018-09-27T09:24:14.739Z,10.87
2018-09-27T09:26:44.773Z,11.50
2018-09-27T09:29:15.337Z,11.90
2018-09-27T09:31:45.241Z,11.47
2018-09-27T09:34:15.712Z,10.27
2018-09-27T09:36:45.529Z,13.77
2018-09-27T09:39:15.379Z,11.87
2018-09-27T09:41:45.515Z,10.80
2018-09-27T09:44:15.367Z,11.60
2018-09-27T09:46:45.219Z,11.03
2018-09-27T09:49:15.083Z,11.23
2018-09-27T09:51:45.034Z,11.07
2018-09-27T09:54:16.020Z,12.60
2018-09-27T09:56:45.891Z,12.57
2018-09-27T09:59:15.977Z,13.13
2018-09-27T10:01:46.001Z,13.77
2018-09-27T10:04:15.862Z,13.23
2018-09-27T10:06:45.886Z,13.63
2018-09-27T10:09:15.725Z,13.40
2018-09-27T10:11:45.506Z,15.27
2018-09-27T10:14:15.400Z,13.93
2018-09-27T10:16:45.258Z,14.80
2018-09-27T10:19:15.167Z,13.10
2018-09-27T10:21:45.216Z,14.43
2018-09-27T10:24:15.129Z,13.17
2018-09-27T10:26:45.023Z,15.50
2018-09-27T10:29:14.930Z,14.20
2018-09-27T10:31:44.775Z,15.67
2018-09-27T10:34:14.673Z,14.30
2018-09-27T10:36:44.503Z,13.27
2018-09-27T10:39:14.324Z,14.63
2018-09-27T10:41:44.426Z,14.90
2018-09-27T10:44:14.726Z,14.73
2018-09-27T10:46:44.698Z,14.67
2018-09-27T10:49:14.725Z,15.20
2018-09-27T10:51:44.670Z,15.93
2018-09-27T10:54:15.076Z,17.90
2018-09-27T10:56:45.032Z,15.17
2018-09-27T10:59:14.901Z,16.20
2018-09-27T11:01:44.850Z,16.30
2018-09-27T11:04:14.814Z,14.83
2018-09-27T11:06:44.757Z,15.77
2018-09-27T11:09:14.751Z,16.30
2018-09-27T11:11:44.616Z,15.87
2018-09-27T11:14:14.434Z,15.70
2018-09-27T11:16:44.370Z,16.03
2018-09-27T11:19:14.322Z,15.13
2018-09-27T11:21:44.205Z,16.47
2018-09-27T11:24:14.986Z,16.70
2018-09-27T11:26:44.986Z,15.13
2018-09-27T11:29:20.028Z,13.17
2018-09-27T11:31:55.056Z,15.60
2018-09-27T11:34:25.036Z,13.80
2018-09-27T11:36:54.773Z,16.40
2018-09-27T11:39:24.524Z,15.63
2018-09-27T11:41:54.372Z,16.20
2018-09-27T11:44:24.299Z,12.50
2018-09-27T11:46:54.170Z,12.77
2018-09-27T11:49:24.098Z,12.43
2018-09-27T11:51:53.826Z,12.63
2018-09-27T11:54:23.649Z,12.60
2018-09-27T11:56:53.629Z,13.13
2018-09-27T11:59:23.490Z,13.47
2018-09-27T12:01:53.428Z,12.07
2018-09-27T12:04:23.346Z,11.37
2018-09-27T12:06:53.251Z,11.37
2018-09-27T12:09:23.251Z,10.47
2018-09-27T12:11:53.305Z,10.00
2018-09-27T12:14:24.166Z,11.13
2018-09-27T12:16:54.339Z,12.17
2018-09-27T12:19:24.205Z,10.23
2018-09-27T12:21:54.039Z,11.73
2018-09-27T12:24:23.881Z,11.83
2018-09-27T12:26:53.754Z,10.63
2018-09-27T12:29:23.758Z,8.67
2018-09-27T12:31:53.715Z,8.77
2018-09-27T12:34:23.885Z,8.17
2018-09-27T12:36:53.694Z,9.83
2018-09-27T12:39:23.569Z,10.77
2018-09-27T12:41:53.403Z,12.07
2018-09-27T12:44:23.068Z,12.03
2018-09-27T12:46:52.912Z,11.07
2018-09-27T12:49:22.711Z,10.13
2018-09-27T12:51:52.682Z,11.10
2018-09-27T12:54:22.510Z,10.63
2018-09-27T12:56:52.324Z,9.27
2018-09-27T12:59:22.296Z,10.83
2018-09-27T13:01:52.790Z,10.70
2018-09-27T13:04:22.376Z,9.37
2018-09-27T13:06:52.401Z,9.13
2018-09-27T13:09:22.506Z,8.63
2018-09-27T13:11:52.343Z,9.27
2018-09-27T13:14:22.471Z,9.03
2018-09-27T13:16:52.328Z,9.73
2018-09-27T13:19:22.165Z,8.33
2018-09-27T13:21:52.002Z,6.90
2018-09-27T13:24:21.887Z,7.03
2018-09-27T13:26:51.739Z,6.60
2018-09-27T13:29:21.854Z,5.57
2018-09-27T13:31:51.838Z,6.73
2018-09-27T13:34:21.615Z,5.43
2018-09-27T13:36:51.427Z,7.37
2018-09-27T13:39:21.294Z,7.30
2018-09-27T13:41:51.323Z,7.30
2018-09-27T13:44:21.282Z,7.40
2018-09-27T13:46:51.157Z,7.20
2018-09-27T13:49:20.968Z,6.33
2018-09-27T13:51:50.875Z,5.73
2018-09-27T13:54:20.661Z,9.80
2018-09-27T13:56:50.580Z,6.87
2018-09-27T13:59:20.422Z,9.70
2018-09-27T14:01:50.541Z,7.33
2018-09-27T14:04:20.403Z,6.93
2018-09-27T14:06:50.239Z,7.10
2018-09-27T14:09:20.147Z,6.63
2018-09-27T14:11:49.954Z,6.00
2018-09-27T14:14:19.999Z,5.87
2018-09-27T14:16:50.015Z,5.27
2018-09-27T14:19:19.854Z,4.60
2018-09-27T14:21:49.833Z,5.50
2018-09-27T14:24:19.746Z,5.57
2018-09-27T14:26:49.622Z,5.63
2018-09-27T14:29:19.457Z,4.17
2018-09-27T14:31:49.403Z,5.23
2018-09-27T14:34:19.312Z,4.43
2018-09-27T14:36:49.566Z,5.80
2018-09-27T14:39:19.351Z,4.40
2018-09-27T14:41:49.317Z,6.23
2018-09-27T14:44:19.230Z,6.97
2018-09-27T14:46:49.135Z,6.13
2018-09-27T14:49:19.272Z,6.60
2018-09-27T14:51:49.156Z,7.10
2018-09-27T14:54:19.228Z,5.90
2018-09-27T14:56:49.584Z,5.77
2018-09-27T14:59:19.643Z,7.10
2018-09-27T15:01:49.538Z,6.50
2018-09-27T15:04:19.414Z,7.67
2018-09-27T15:06:49.308Z,5.77
2018-09-27T15:09:19.205Z,5.97
2018-09-27T15:11:49.747Z,8.07
2018-09-27T15:14:19.845Z,8.03
2018-09-27T15:16:50.027Z,6.50
2018-09-27T15:19:19.952Z,7.90
2018-09-27T15:21:49.770Z,7.23
2018-09-27T15:24:20.696Z,7.73
2018-09-27T15:26:50.607Z,6.17
2018-09-27T15:29:20.480Z,5.00
2018-09-27T15:31:50.595Z,5.83
2018-09-27T15:34:20.759Z,7.10
2018-09-27T15:36:50.741Z,4.53
2018-09-27T15:39:20.673Z,4.93
2018-09-27T15:41:50.621Z,5.27
2018-09-27T15:44:20.573Z,4.37
2018-09-27T15:46:50.467Z,5.00
2018-09-27T15:49:20.297Z,4.90
2018-09-27T15:51:50.163Z,4.97
2018-09-27T15:54:20.049Z,5.07
2018-09-27T15:56:49.875Z,4.87
2018-09-27T15:59:19.785Z,5.70
2018-09-27T16:01:49.917Z,4.77
2018-09-27T16:04:19.841Z,4.60
2018-09-27T16:06:49.973Z,4.83
2018-09-27T16:09:19.885Z,5.23
2018-09-27T16:11:49.707Z,3.30
2018-09-27T16:14:19.805Z,4.90
2018-09-27T16:16:49.664Z,6.03
2018-09-27T16:19:23.747Z,7.07
2018-09-27T16:21:54.663Z,4.70
2018-09-27T16:24:24.667Z,4.57
2018-09-27T16:26:54.616Z,4.50
2018-09-27T16:32:12.257Z,6.50
2018-09-27T16:37:36.486Z,4.33
2018-09-27T16:41:04.425Z,3.67
2018-09-27T16:43:34.933Z,4.57
2018-09-27T16:46:07.374Z,5.03
2018-09-27T16:48:38.550Z,4.23
2018-09-27T16:51:09.078Z,5.90
2018-09-27T16:53:39.292Z,4.07
2018-09-27T16:56:09.441Z,3.43
2018-09-27T16:58:39.441Z,5.10
2018-09-27T17:01:09.337Z,5.80
2018-09-27T17:03:39.227Z,5.03
2018-09-27T17:06:09.095Z,7.07
2018-09-27T17:08:39.019Z,4.73
2018-09-27T17:11:08.768Z,3.07
2018-09-27T17:13:38.746Z,5.03
2018-09-27T17:16:09.660Z,3.17
2018-09-27T17:18:39.527Z,3.90
2018-09-27T17:21:09.395Z,6.03
2018-09-27T17:23:39.364Z,5.20
2018-09-27T17:26:09.232Z,5.17
2018-09-27T17:28:39.102Z,3.43
2018-09-27T17:31:09.537Z,3.97
2018-09-27T17:33:39.449Z,5.13
2018-09-27T17:36:09.220Z,3.50
2018-09-27T17:38:39.091Z,3.30
2018-09-27T17:41:09.435Z,4.73
2018-09-27T17:43:39.308Z,4.40
2018-09-27T17:46:09.211Z,4.70
2018-09-27T17:48:38.943Z,4.50
2018-09-27T17:51:08.841Z,5.93
2018-09-27T17:53:38.805Z,4.60
2018-09-27T17:56:08.791Z,3.10
2018-09-27T17:58:38.783Z,5.97
2018-09-27T18:01:08.715Z,3.07
2018-09-27T18:03:38.582Z,3.97
2018-09-27T18:06:08.452Z,3.47
2018-09-27T18:08:38.486Z,3.37
2018-09-27T18:11:08.254Z,3.53
2018-09-27T18:13:38.189Z,5.20
2018-09-27T18:16:08.106Z,4.00
2018-09-27T18:18:38.057Z,4.83
2018-09-27T18:21:08.074Z,5.17
2018-09-27T18:23:37.908Z,5.70
2018-09-27T18:26:07.884Z,5.87
2018-09-27T18:28:37.837Z,4.83
2018-09-27T18:31:07.723Z,4.00
2018-09-27T18:33:37.584Z,5.03
2018-09-27T18:36:07.701Z,4.63
2018-09-27T18:38:37.568Z,3.47
2018-09-27T18:41:07.391Z,3.43
2018-09-27T18:43:37.129Z,4.87
2018-09-27T18:46:07.059Z,4.33
2018-09-27T18:48:36.934Z,4.17
2018-09-27T18:51:07.121Z,5.60
2018-09-27T18:53:37.015Z,4.67
2018-09-27T18:56:06.882Z,4.63
2018-09-27T18:58:36.874Z,4.90
2018-09-27T19:01:06.945Z,5.77
2018-09-27T19:03:36.788Z,7.60
2018-09-27T19:06:06.620Z,6.33
2018-09-27T19:08:37.211Z,4.90
2018-09-27T19:11:07.256Z,4.90
2018-09-27T19:13:37.177Z,7.47
2018-09-27T19:16:07.250Z,5.50
2018-09-27T19:18:36.984Z,7.57
2018-09-27T19:21:06.995Z,7.43
2018-09-27T19:23:36.755Z,6.47
2018-09-27T19:26:06.777Z,6.53
2018-09-27T19:28:36.760Z,7.90
2018-09-27T19:31:06.684Z,7.33
2018-09-27T19:33:36.508Z,8.13
2018-09-27T19:36:06.379Z,8.70
2018-09-27T19:38:36.495Z,9.27
2018-09-27T19:41:06.436Z,10.83
2018-09-27T19:43:36.368Z,11.80
2018-09-27T19:46:06.311Z,15.17
2018-09-27T19:48:36.258Z,9.93
2018-09-27T19:51:06.516Z,11.97
2018-09-27T19:53:36.565Z,12.83
2018-09-27T19:56:06.506Z,11.10
2018-09-27T19:58:36.514Z,10.07
2018-09-27T20:01:06.521Z,10.43
2018-09-27T20:03:36.454Z,12.73
2018-09-27T20:06:06.373Z,10.50
2018-09-27T20:08:36.183Z,12.53
2018-09-27T20:11:05.959Z,15.40
2018-09-27T20:13:35.797Z,10.17
2018-09-27T20:16:05.680Z,13.40
2018-09-27T20:18:35.581Z,16.17
2018-09-27T20:21:05.442Z,11.47
2018-09-27T20:23:35.350Z,9.07
2018-09-27T20:26:05.207Z,13.47
2018-09-27T20:28:35.162Z,11.90
2018-09-27T20:31:05.105Z,11.37
2018-09-27T20:33:44.882Z,9.70
2018-09-27T20:36:14.803Z,12.87
2018-09-27T20:38:44.635Z,13.50
2018-09-27T20:41:14.538Z,11.67
2018-09-27T20:43:44.390Z,9.37
2018-09-27T20:46:16.848Z,8.60
2018-09-27T20:48:47.638Z,14.37
2018-09-27T20:51:17.558Z,12.53
2018-09-27T20:53:48.232Z,13.73
2018-09-27T20:56:19.538Z,11.43
2018-09-27T20:58:49.506Z,13.23
2018-09-27T21:01:19.447Z,12.17
2018-09-27T21:03:49.982Z,13.10
2018-09-27T21:06:20.370Z,13.73
2018-09-27T21:08:50.139Z,10.33
2018-09-27T21:11:20.114Z,11.23
2018-09-27T21:13:50.134Z,12.60
2018-09-27T21:16:19.989Z,8.23
2018-09-27T21:18:50.478Z,10.20
2018-09-27T21:21:20.380Z,11.53
2018-09-27T21:23:50.214Z,11.73
2018-09-27T21:26:20.021Z,12.70
2018-09-27T21:28:50.116Z,13.30
2018-09-27T21:31:19.937Z,12.97
2018-09-27T21:33:49.800Z,13.17
2018-09-27T21:36:19.740Z,15.33
2018-09-27T21:38:49.655Z,15.97
2018-09-27T21:41:19.477Z,11.03
2018-09-27T21:43:51.224Z,12.13
2018-09-27T21:46:21.150Z,10.97
2018-09-27T21:48:50.944Z,12.03
2018-09-27T21:51:20.861Z,13.80
2018-09-27T21:53:50.734Z,14.23
2018-09-27T21:56:20.560Z,14.03
2018-09-27T21:58:50.364Z,14.77
2018-09-27T22:01:20.331Z,14.30
2018-09-27T22:03:50.161Z,15.63
2018-09-27T22:06:19.993Z,13.03
2018-09-27T22:08:49.843Z,14.60
2018-09-27T22:11:19.733Z,14.90
2018-09-27T22:13:49.565Z,17.03
2018-09-27T22:16:19.331Z,13.10
2018-09-27T22:18:49.233Z,15.70
2018-09-27T22:21:19.053Z,17.97
2018-09-27T22:23:48.874Z,17.20
2018-09-27T22:26:18.881Z,17.50
2018-09-27T22:28:48.697Z,14.70
2018-09-27T22:31:18.490Z,16.60
2018-09-27T22:33:48.432Z,16.87
2018-09-27T22:36:18.307Z,14.37
2018-09-27T22:38:48.131Z,14.40
2018-09-27T22:41:18.177Z,17.07
2018-09-27T22:43:48.087Z,15.67
2018-09-27T22:46:17.764Z,17.27
2018-09-27T22:48:47.662Z,17.13
2018-09-27T22:51:17.457Z,17.27
2018-09-27T22:53:47.240Z,15.67
2018-09-27T22:56:17.086Z,16.23
2018-09-27T22:58:47.026Z,19.60
2018-09-27T23:01:16.790Z,16.20
2018-09-27T23:03:46.535Z,17.83
2018-09-27T23:06:16.379Z,18.40
2018-09-27T23:08:46.210Z,17.80
2018-09-27T23:11:16.163Z,17.63
2018-09-27T23:13:45.947Z,20.50
2018-09-27T23:16:15.879Z,18.97
2018-09-27T23:18:45.638Z,18.83
2018-09-27T23:21:15.426Z,17.80
2018-09-27T23:23:45.225Z,16.57
2018-09-27T23:26:15.051Z,16.23
2018-09-27T23:28:44.954Z,15.97
2018-09-27T23:31:14.921Z,16.93
2018-09-27T23:33:44.763Z,17.57
2018-09-27T23:36:14.591Z,15.83
2018-09-27T23:38:45.418Z,16.90
2018-09-27T23:41:15.360Z,19.40
2018-09-27T23:43:45.069Z,18.23
2018-09-27T23:46:14.917Z,17.07
2018-09-27T23:48:44.793Z,18.23
2018-09-27T23:51:14.547Z,16.00
2018-09-27T23:53:44.343Z,18.57
2018-09-27T23:56:14.229Z,19.87
2018-09-27T23:58:44.243Z,18.87
